Airfield :
LOGIN :

Register | Disclaimer

   EN    FR    IT 

 










Legend :    VFR   Marginal VFR   IFR   Intensive IFR   Very Intensive IFR
Visi :
Ceiling :
>= 8 km
>= 3000ft
5 to 8 km
1000 to 3000 ft
1500m to 5 km
500 to 1000 ft
800 to 1500m
200 to 500 ft
< 800m
< 200 ft
Symbols :   Thunderstorms  Fog  Heavy snow  Heavy precipitations  Wind > 20 kt
SIGMETs :     Misc.  Thunderstorms  Icing  Turbulence  Mountain Waves  Volcanic Ashes







- Airport Elevation : 459 ft
- IATA code : CER
- Download approach charts


LFRC - Cherbourg / Maupertus

CURRENT METAR :
  • 150700Z AUTO 15011KT 2700 -SN BR BKN028/// BKN035/// BKN043/// ///TCU 00/M01 Q1014 TEMPO 4000 RA BKN003 BECMG 15020G30KT

EXPIRED METARs :
  • 150630Z AUTO 15014KT 4400 -SN BR SCT030/// SCT039/// BKN060/// ///TCU M00/M02 Q1014 TEMPO 2500 RADZ BKN003 BECMG 15020G30KT
  • 150600Z AUTO 15015KT 4700 -SN BR ///CB M00/M02 Q1015 BECMG 15020G30KT 5000 RA BKN008
  • 150530Z AUTO 15016KT 5000 -SN BR FEW048/// OVC064/// ///TCU M00/M03 Q1015
  • 150500Z AUTO 15015KT 6000 -SN BKN049/// OVC062/// ///TCU M00/M03 Q1015
  • 150430Z AUTO 16014KT 8000 FEW026/// OVC050/// ///TCU 00/M04 Q1016

TAF AMD TAF LFRC
Valid from the 15 at 06:00 until the 15 at 15:00 UTC


150644Z 1506/1515 15015KT 4000 RA BKN012
PROB30
TEMPO 1506/1507 FZRA
BECMG 1506/1508 15020G30KT BKN008
TEMPO 1508/1515 2500 RADZ BKN003
No reported NOTAMs for that airfield.
2 SIGMETs reported for the Brest FIR (LFRR) :
 
Severe turbulence
LFRR SIGMET 2 VALID 150700/151100 LFPW
LFRR BREST FIR/UIR SEV TURB FCST WI N4945 W00345 - N5000 W00200 - N4830 W00115 - N4830 W00415 - N4945 W00345 SFC/FL050 MOV NE 15KT NC=
Severe icing with freezing rain
LFRR SIGMET 1 VALID 150500/150800 LFPW
LFRR BREST FIR/UIR SEV ICE (FZRA) FCST WI N4945 W00015 - N4645 W00015 - N4645 W00130 - N4930 W00245 - N4945 W00015 SFC/FL070 MOV E 15KT NC=



MET'MAP, your aeronautical weather chart ! - Copyright ORBIFLY December 2007 - Disclaimer

ORBIFLY MET'MAP TEAM :

Programming & Development : Alexandra Zaïnal
Concept & Development : Baudouin d'Aumeries
Co-Development & Prog : Marc-Olivier Méhu
Technical & hardware support : Manuel Goepfert

Contact : metmap@orbifly.com




SOURCES & CREDITS :

   NOAA